Map

Track Data

SID SEASON NUMBER BASIN SUBBASIN NAME ISO_TIME NATURE LAT LON WMO_WIND WMO_PRES WMO_AGENCY TRACK_TYPE DIST2LAND LANDFALL IFLAG USA_AGENCY USA_ATCF_ID USA_LAT USA_LON USA_RECORD USA_STATUS USA_WIND USA_PRES USA_SSHS USA_R34_NE USA_R34_SE USA_R34_SW USA_R34_NW USA_R50_NE USA_R50_SE USA_R50_SW USA_R50_NW USA_R64_NE USA_R64_SE USA_R64_SW USA_R64_NW USA_POCI USA_ROCI USA_RMW USA_EYE TOKYO_LAT TOKYO_LON TOKYO_GRADE TOKYO_WIND TOKYO_PRES TOKYO_R50_DIR TOKYO_R50_LONG TOKYO_R50_SHORT TOKYO_R30_DIR TOKYO_R30_LONG TOKYO_R30_SHORT TOKYO_LAND CMA_LAT CMA_LON CMA_CAT CMA_WIND CMA_PRES HKO_LAT HKO_LON HKO_CAT HKO_WIND HKO_PRES NEWDELHI_LAT NEWDELHI_LON NEWDELHI_GRADE NEWDELHI_WIND NEWDELHI_PRES NEWDELHI_CI NEWDELHI_DP NEWDELHI_POCI REUNION_LAT REUNION_LON REUNION_TYPE REUNION_WIND REUNION_PRES REUNION_TNUM REUNION_CI REUNION_RMW REUNION_R34_NE REUNION_R34_SE REUNION_R34_SW REUNION_R34_NW REUNION_R50_NE REUNION_R50_SE REUNION_R50_SW REUNION_R50_NW REUNION_R64_NE REUNION_R64_SE REUNION_R64_SW REUNION_R64_NW BOM_LAT BOM_LON BOM_TYPE BOM_WIND BOM_PRES BOM_TNUM BOM_CI BOM_RMW BOM_R34_NE BOM_R34_SE BOM_R34_SW BOM_R34_NW BOM_R50_NE BOM_R50_SE BOM_R50_SW BOM_R50_NW BOM_R64_NE BOM_R64_SE BOM_R64_SW BOM_R64_NW BOM_ROCI BOM_POCI BOM_EYE BOM_POS_METHOD BOM_PRES_METHOD NADI_LAT NADI_LON NADI_CAT NADI_WIND NADI_PRES WELLINGTON_LAT WELLINGTON_LON WELLINGTON_WIND WELLINGTON_PRES DS824_LAT DS824_LON DS824_STAGE DS824_WIND DS824_PRES TD9636_LAT TD9636_LON TD9636_STAGE TD9636_WIND TD9636_PRES TD9635_LAT TD9635_LON TD9635_WIND TD9635_PRES TD9635_ROCI NEUMANN_LAT NEUMANN_LON NEUMANN_CLASS NEUMANN_WIND NEUMANN_PRES MLC_LAT MLC_LON MLC_CLASS MLC_WIND MLC_PRES USA_GUST BOM_GUST BOM_GUST_PER REUNION_GUST REUNION_GUST_PER USA_SEAHGT USA_SEARAD_NE USA_SEARAD_SE USA_SEARAD_SW USA_SEARAD_NW STORM_SPEED STORM_DIR
1912210N15123 1912 33 WP MM NOT_NAMED 1912-07-28 04:00:00 NR 15.4000 122.800 main 108 46 __________O___ -1 15.4000 122.800 7 17 310
1912210N15123 1912 33 WP MM NOT_NAMED 1912-07-28 06:00:00 NR 15.7586 122.361 main 46 0 __________P___ -1 15.7586 122.361 7 16 312
1912210N15123 1912 33 WP MM NOT_NAMED 1912-07-28 09:00:00 NR 16.2985 121.746 main 0 0 __________P___ -1 16.2985 121.746 7 15 316
1912210N15123 1912 33 WP MM NOT_NAMED 1912-07-28 12:00:00 NR 16.8462 121.249 main 0 0 __________P___ -1 16.8462 121.249 7 14 325
1912210N15123 1912 33 WP MM NOT_NAMED 1912-07-28 15:00:00 NR 17.4082 120.945 main 0 0 __________P___ -1 17.4082 120.945 7 12 336
1912210N15123 1912 33 WP MM NOT_NAMED 1912-07-28 16:00:00 NR 17.6000 120.900 main 0 0 __________O___ -1 17.6000 120.900 7 12 357
1912210N15123 1912 33 WP MM NOT_NAMED 1912-07-28 18:00:00 NR 17.9890 120.901 main 0 0 __________P___ -1 17.9890 120.901 7 12 10
1912210N15123 1912 33 WP MM NOT_NAMED 1912-07-28 21:00:00 NR 18.5615 121.081 main 11 11 __________P___ -1 18.5615 121.081 7 12 23
1912210N15123 1912 33 WP MM NOT_NAMED 1912-07-29 00:00:00 NR 19.0786 121.384 main 67 67 __________P___ -1 19.0786 121.384 7 11 32
1912210N15123 1912 33 WP MM NOT_NAMED 1912-07-29 03:00:00 NR 19.4929 121.706 main 116 116 __________P___ -1 19.4929 121.706 7 10 37
1912210N15123 1912 33 WP MM NOT_NAMED 1912-07-29 04:00:00 NR 19.6000 121.800 main 130 130 __________O___ -1 19.6000 121.800 7 6 36
1912210N15123 1912 33 WP MM NOT_NAMED 1912-07-29 06:00:00 NR 19.7469 121.901 main 144 154 __________P___ -1 19.7469 121.901 7 4 39
1912210N15123 1912 33 WP MM NOT_NAMED 1912-07-29 09:00:00 NR 19.8602 122.021 main 168 167 __________P___ -1 19.8602 122.021 7 2 53
1912210N15123 1912 33 WP MM NOT_NAMED 1912-07-29 12:00:00 NR 19.8922 122.110 main 167 167 __________P___ -1 19.8922 122.110 7 2 77
1912210N15123 1912 33 WP MM NOT_NAMED 1912-07-29 15:00:00 NR 19.8959 122.180 main 167 167 __________P___ -1 19.8959 122.180 7 1 85
1912210N15123 1912 33 WP MM NOT_NAMED 1912-07-29 16:00:00 NR 19.9000 122.200 main 167 167 __________O___ -1 19.9000 122.200 7 2 54
1912210N15123 1912 33 WP MM NOT_NAMED 1912-07-29 18:00:00 NR 19.9474 122.250 main 167 178 __________P___ -1 19.9474 122.250 7 2 42
1912210N15123 1912 33 WP MM NOT_NAMED 1912-07-29 21:00:00 NR 20.0184 122.313 main 178 178 __________P___ -1 20.0184 122.313 7 2 35
1912210N15123 1912 33 WP MM NOT_NAMED 1912-07-30 00:00:00 NR 20.0921 122.360 main 190 190 __________P___ -1 20.0921 122.360 7 2 27
1912210N15123 1912 33 WP MM NOT_NAMED 1912-07-30 03:00:00 NR 20.1716 122.393 main 201 201 __________P___ -1 20.1716 122.393 7 2 15
1912210N15123 1912 33 WP MM NOT_NAMED 1912-07-30 04:00:00 NR 20.2000 122.400 main 201 201 __________O___ -1 20.2000 122.400 2 2 12
1912210N15123 1912 33 WP MM NOT_NAMED 1912-07-30 06:00:00 NR 20.2583 122.411 main 212 212 __________P___ -1 20.2583 122.411 2 2 7
1912210N15123 1912 33 WP MM NOT_NAMED 1912-07-30 09:00:00 NR 20.3521 122.416 main 223 220 __________P___ -1 20.3521 122.416 2 2 0
1912210N15123 1912 33 WP MM NOT_NAMED 1912-07-30 12:00:00 NR 20.4533 122.411 main 220 212 __________P___ -1 20.4533 122.411 2 2 0
1912210N15123 1912 33 WP MM NOT_NAMED 1912-07-30 15:00:00 NR 20.5621 122.402 main 212 212 __________P___ -1 20.5621 122.402 2 2 352
1912210N15123 1912 33 WP MM NOT_NAMED 1912-07-30 16:00:00 NR 20.6000 122.400 main 212 205 __________O___ -1 20.6000 122.400 2 3 10
1912210N15123 1912 33 WP MM NOT_NAMED 1912-07-30 18:00:00 NR 20.6855 122.418 main 205 198 __________P___ -1 20.6855 122.418 2 3 10
1912210N15123 1912 33 WP MM NOT_NAMED 1912-07-30 21:00:00 NR 20.8201 122.446 main 198 193 __________P___ -1 20.8201 122.446 2 3 8
1912210N15123 1912 33 WP MM NOT_NAMED 1912-07-31 00:00:00 NR 20.9515 122.455 main 193 179 __________P___ -1 20.9515 122.455 2 2 358
1912210N15123 1912 33 WP MM NOT_NAMED 1912-07-31 03:00:00 NR 21.0671 122.423 main 179 179 __________P___ -1 21.0671 122.423 2 2 340
1912210N15123 1912 33 WP MM NOT_NAMED 1912-07-31 04:00:00 NR 21.1000 122.400 main 179 164 __________O___ -1 21.1000 122.400 2 3 311
1912210N15123 1912 33 WP MM NOT_NAMED 1912-07-31 06:00:00 NR 21.1532 122.318 main 164 155 __________P___ -1 21.1532 122.318 2 3 296
1912210N15123 1912 33 WP MM NOT_NAMED 1912-07-31 09:00:00 NR 21.2141 122.151 main 155 132 __________P___ -1 21.2141 122.151 2 4 287
1912210N15123 1912 33 WP MM NOT_NAMED 1912-07-31 12:00:00 NR 21.2577 121.956 main 132 114 __________P___ -1 21.2577 121.956 2 4 282
1912210N15123 1912 33 WP MM NOT_NAMED 1912-07-31 15:00:00 NR 21.2904 121.760 main 114 106 __________P___ -1 21.2904 121.760 2 4 280
1912210N15123 1912 33 WP MM NOT_NAMED 1912-07-31 16:00:00 NR 21.3000 121.700 main 106 98 __________O___ -1 21.3000 121.700 2 2 274
1912210N15123 1912 33 WP MM NOT_NAMED 1912-07-31 18:00:00 NR 21.2985 121.634 main 98 91 __________P___ -1 21.2985 121.634 2 2 266
1912210N15123 1912 33 WP MM NOT_NAMED 1912-07-31 21:00:00 NR 21.2894 121.548 main 91 84 __________P___ -1 21.2894 121.548 2 2 271
1912210N15123 1912 33 WP MM NOT_NAMED 1912-08-01 00:00:00 NR 21.3003 121.442 main 84 69 __________P___ -1 21.3003 121.442 2 3 286
1912210N15123 1912 33 WP MM NOT_NAMED 1912-08-01 03:00:00 NR 21.3625 121.276 main 69 63 __________P___ -1 21.3625 121.276 2 4 294
1912210N15123 1912 33 WP MM NOT_NAMED 1912-08-01 04:00:00 NR 21.4000 121.200 main 63 45 __________O___ -1 21.4000 121.200 3 6 299
1912210N15123 1912 33 WP MM NOT_NAMED 1912-08-01 06:00:00 NR 21.5158 120.978 main 45 22 __________P___ -1 21.5158 120.978 3 8 301
1912210N15123 1912 33 WP MM NOT_NAMED 1912-08-01 09:00:00 NR 21.7461 120.576 main 24 15 __________P___ -1 21.7461 120.576 3 9 303
1912210N15123 1912 33 WP MM NOT_NAMED 1912-08-01 12:00:00 NR 22.0188 120.139 main 59 49 __________P___ -1 22.0188 120.139 3 10 305
1912210N15123 1912 33 WP MM NOT_NAMED 1912-08-01 15:00:00 NR 22.3059 119.724 main 65 62 __________P___ -1 22.3059 119.724 3 9 307
1912210N15123 1912 33 WP MM NOT_NAMED 1912-08-01 16:00:00 NR 22.4000 119.600 main 72 72 __________O___ -1 22.4000 119.600 4 7 316
1912210N15123 1912 33 WP MM NOT_NAMED 1912-08-01 18:00:00 NR 22.5709 119.448 main 85 82 __________P___ -1 22.5709 119.448 4 6 324
1912210N15123 1912 33 WP MM NOT_NAMED 1912-08-01 21:00:00 NR 22.8279 119.267 main 88 88 __________P___ -1 22.8279 119.267 4 6 326
1912210N15123 1912 33 WP MM NOT_NAMED 1912-08-02 00:00:00 NR 23.0804 119.079 main 102 102 __________P___ -1 23.0804 119.079 4 6 320
1912210N15123 1912 33 WP MM NOT_NAMED 1912-08-02 03:00:00 NR 23.3227 118.816 main 120 105 __________P___ -1 23.3227 118.816 4 7 313
1912210N15123 1912 33 WP MM NOT_NAMED 1912-08-02 04:00:00 NR 23.4000 118.700 main 105 67 __________O___ -1 23.4000 118.700 2 9 303
1912210N15123 1912 33 WP MM NOT_NAMED 1912-08-02 06:00:00 NR 23.5658 118.405 main 67 15 __________P___ -1 23.5658 118.405 2 10 298
1912210N15123 1912 33 WP MM NOT_NAMED 1912-08-02 09:00:00 NR 23.8020 117.867 main 15 0 __________P___ -1 23.8020 117.867 2 12 292
1912210N15123 1912 33 WP MM NOT_NAMED 1912-08-02 12:00:00 NR 24.0070 117.238 main 0 0 __________P___ -1 24.0070 117.238 2 13 287
1912210N15123 1912 33 WP MM NOT_NAMED 1912-08-02 15:00:00 NR 24.1623 116.542 main 0 0 __________P___ -1 24.1623 116.542 2 13 283
1912210N15123 1912 33 WP MM NOT_NAMED 1912-08-02 16:00:00 NR 24.2000 116.300 main 0 0 __________O___ -1 24.2000 116.300 2 14 278
1912210N15123 1912 33 WP MM NOT_NAMED 1912-08-02 18:00:00 NR 24.2519 115.805 main 0 0 __________P___ -1 24.2519 115.805 2 14 274
1912210N15123 1912 33 WP MM NOT_NAMED 1912-08-02 21:00:00 NR 24.2797 115.040 main 0 0 __________P___ -1 24.2797 115.040 2 14 270
1912210N15123 1912 33 WP MM NOT_NAMED 1912-08-03 00:00:00 NR 24.2626 114.257 main 0 0 __________P___ -1 24.2626 114.257 2 14 268
1912210N15123 1912 33 WP MM NOT_NAMED 1912-08-03 03:00:00 NR 24.2180 113.465 main 0 0 __________P___ -1 24.2180 113.465 2 14 266
1912210N15123 1912 33 WP MM NOT_NAMED 1912-08-03 04:00:00 NR 24.2000 113.200 main 0 __________O___ -1 24.2000 113.200 7 15 266

Digital Typhoon Data and Search

About IBTrACS Database

This database is a web-friendly format of International Best Track Archive for Climate Stewardship (IBTrACS), a global best track data archive curated by NOAA dating back to 1842.

Updated: 2021-10-27